createdAt,value
2023-03-27T00:01:20.104Z,5.80
2023-03-27T00:06:25.407Z,2.83
2023-03-27T00:11:27.918Z,4.07
2023-03-27T00:16:32.632Z,8.20
2023-03-27T00:21:35.347Z,10.00
2023-03-27T00:26:40.674Z,5.70
2023-03-27T00:31:43.035Z,3.97
2023-03-27T00:36:51.359Z,9.15
2023-03-27T00:41:58.886Z,4.53
2023-03-27T00:47:04.394Z,15.30
2023-03-27T00:52:08.602Z,4.75
2023-03-27T00:57:16.331Z,8.07
2023-03-27T01:02:19.351Z,2.17
2023-03-27T01:07:22.788Z,3.85
2023-03-27T01:12:55.130Z,7.00
2023-03-27T01:18:09.519Z,8.68
2023-03-27T01:23:59.413Z,12.15
2023-03-27T01:29:13.850Z,8.43
2023-03-27T01:34:43.572Z,16.65
2023-03-27T01:40:12.799Z,8.23
2023-03-27T01:45:25.376Z,8.07
2023-03-27T01:50:40.480Z,12.55
2023-03-27T01:55:48.080Z,10.38
2023-03-27T02:00:55.448Z,9.00
2023-03-27T02:06:19.477Z,14.60
2023-03-27T02:11:28.981Z,9.40
2023-03-27T02:16:35.380Z,12.73
2023-03-27T02:21:39.406Z,8.77
2023-03-27T02:26:42.543Z,9.02
2023-03-27T02:32:02.593Z,5.72
2023-03-27T02:37:32.168Z,7.18
2023-03-27T02:43:11.600Z,11.38
2023-03-27T02:48:27.620Z,8.05
2023-03-27T02:53:35.328Z,9.45
2023-03-27T02:58:52.483Z,4.53
2023-03-27T03:04:18.133Z,6.20
2023-03-27T03:09:41.136Z,8.40
2023-03-27T03:14:44.393Z,7.13
2023-03-27T03:19:46.919Z,8.90
2023-03-27T03:24:49.296Z,4.93
2023-03-27T03:29:53.183Z,14.13
2023-03-27T03:34:58.744Z,6.53
2023-03-27T03:40:11.994Z,10.48
2023-03-27T03:45:19.243Z,8.65
2023-03-27T03:50:22.978Z,5.50
2023-03-27T03:55:26.012Z,12.40
2023-03-27T04:00:39.777Z,11.80
2023-03-27T04:05:48.676Z,11.25
2023-03-27T04:10:50.946Z,4.30
2023-03-27T04:16:22.735Z,5.43
2023-03-27T04:21:26.923Z,3.95
2023-03-27T04:26:29.920Z,13.18
2023-03-27T04:32:09.742Z,8.18
2023-03-27T04:37:15.069Z,7.32
2023-03-27T04:42:30.147Z,8.88
2023-03-27T04:47:37.951Z,9.27
2023-03-27T04:52:40.986Z,11.52
2023-03-27T04:57:47.948Z,9.07
2023-03-27T05:02:54.752Z,17.27
2023-03-27T05:08:10.354Z,6.78
2023-03-27T05:13:12.831Z,8.25
2023-03-27T05:18:16.096Z,7.00
2023-03-27T05:23:19.201Z,7.93
2023-03-27T05:28:22.632Z,5.63
2023-03-27T05:33:24.854Z,6.10
2023-03-27T05:38:29.901Z,4.28
2023-03-27T05:43:54.825Z,9.27
2023-03-27T05:48:59.315Z,6.97
2023-03-27T05:54:01.594Z,11.48
2023-03-27T05:59:33.450Z,9.13
2023-03-27T06:04:52.305Z,7.95
2023-03-27T06:10:03.081Z,8.82
2023-03-27T06:15:09.512Z,13.38
2023-03-27T06:20:25.706Z,10.63
2023-03-27T06:25:33.489Z,12.68
2023-03-27T06:30:38.082Z,16.45
2023-03-27T06:36:00.733Z,7.15
2023-03-27T06:41:24.690Z,17.33
2023-03-27T06:46:45.463Z,41.58
2023-03-27T06:52:03.058Z,22.85
2023-03-27T06:57:05.619Z,19.42
2023-03-27T07:02:28.208Z,15.90
2023-03-27T07:07:30.460Z,14.55
2023-03-27T07:12:32.623Z,17.98
2023-03-27T07:17:48.111Z,9.20
2023-03-27T07:22:57.499Z,13.57
2023-03-27T07:28:22.310Z,19.45
2023-03-27T07:33:25.265Z,18.67
2023-03-27T07:38:27.620Z,13.00
2023-03-27T07:43:42.321Z,18.67
2023-03-27T07:48:45.417Z,25.98
2023-03-27T07:53:58.532Z,18.40
2023-03-27T07:59:06.881Z,25.85
2023-03-27T08:04:09.304Z,24.15
2023-03-27T08:09:14.460Z,28.55
2023-03-27T08:14:17.320Z,43.70
2023-03-27T08:19:21.309Z,39.28
2023-03-27T08:24:27.853Z,44.25
2023-03-27T08:29:53.258Z,35.25
2023-03-27T08:34:56.569Z,42.22
2023-03-27T08:40:02.260Z,39.25
2023-03-27T08:45:28.535Z,55.92
2023-03-27T08:50:49.800Z,79.72
2023-03-27T08:55:54.766Z,64.30
2023-03-27T09:01:24.047Z,48.45
2023-03-27T09:06:52.741Z,35.72
2023-03-27T09:17:20.739Z,29.27
2023-03-27T09:22:29.148Z,42.83
2023-03-27T09:27:39.183Z,29.15
2023-03-27T09:33:05.917Z,25.08
2023-03-27T09:38:34.035Z,22.00
2023-03-27T09:44:07.942Z,22.08
2023-03-27T09:49:23.976Z,16.10
2023-03-27T09:54:30.121Z,14.48
2023-03-27T09:59:38.266Z,16.52
2023-03-27T10:05:12.253Z,12.82
2023-03-27T10:10:20.516Z,17.63
2023-03-27T10:15:43.894Z,15.20
2023-03-27T10:20:59.606Z,13.88
2023-03-27T10:26:08.513Z,16.73
2023-03-27T10:31:32.203Z,14.20
2023-03-27T10:36:47.479Z,6.22
2023-03-27T10:41:54.939Z,8.93
2023-03-27T10:46:57.710Z,11.57
2023-03-27T10:52:12.972Z,7.55
2023-03-27T10:57:54.509Z,8.88
2023-03-27T11:03:26.355Z,3.97
2023-03-27T11:08:53.373Z,11.32
2023-03-27T11:14:05.437Z,6.68
2023-03-27T11:19:10.833Z,11.05
2023-03-27T11:24:51.957Z,4.88
2023-03-27T11:30:10.206Z,4.45
2023-03-27T11:35:28.689Z,7.40
2023-03-27T11:40:51.985Z,8.93
2023-03-27T11:46:26.721Z,5.50
2023-03-27T11:51:32.504Z,7.32
2023-03-27T11:56:54.855Z,4.78
2023-03-27T12:02:28.993Z,3.63
2023-03-27T12:07:47.373Z,7.50
2023-03-27T12:13:17.104Z,4.03
2023-03-27T12:18:41.269Z,2.05
2023-03-27T12:24:06.745Z,4.03
2023-03-27T12:29:33.338Z,10.32
2023-03-27T12:34:53.169Z,3.10
2023-03-27T12:39:59.702Z,6.15
2023-03-27T12:50:21.436Z,6.78
2023-03-27T12:55:32.262Z,3.55
2023-03-27T13:00:34.458Z,11.85
2023-03-27T13:06:00.177Z,2.90
2023-03-27T13:11:17.636Z,7.90
2023-03-27T13:16:50.635Z,5.65
2023-03-27T13:22:17.747Z,9.07
2023-03-27T13:27:21.073Z,3.60
2023-03-27T13:32:40.602Z,5.13
2023-03-27T13:38:04.602Z,7.35
2023-03-27T13:43:28.034Z,5.50
2023-03-27T13:49:32.413Z,7.90
2023-03-27T13:55:24.719Z,4.20
2023-03-27T14:01:19.087Z,3.97
2023-03-27T14:06:59.663Z,6.47
2023-03-27T14:12:17.578Z,8.55
2023-03-27T14:18:01.824Z,7.45
2023-03-27T14:23:18.068Z,6.95
2023-03-27T14:28:46.875Z,5.40
2023-03-27T14:33:58.249Z,8.27
2023-03-27T14:39:22.999Z,10.00
2023-03-27T14:44:32.695Z,9.90
2023-03-27T14:49:47.512Z,6.47
2023-03-27T14:54:55.690Z,11.25
2023-03-27T15:00:07.022Z,16.88
2023-03-27T15:05:19.582Z,13.90
2023-03-27T15:10:31.669Z,11.98
2023-03-27T15:15:59.906Z,7.38
2023-03-27T15:21:14.905Z,8.13
2023-03-27T15:26:27.676Z,8.80
2023-03-27T15:31:31.272Z,9.80
2023-03-27T15:36:37.519Z,20.33
2023-03-27T15:41:42.090Z,10.95
2023-03-27T15:46:48.762Z,2.95
2023-03-27T15:51:51.380Z,6.78
2023-03-27T15:57:09.788Z,9.00
2023-03-27T16:02:16.994Z,6.25
2023-03-27T16:07:25.484Z,4.93
2023-03-27T16:12:32.789Z,11.43
2023-03-27T16:17:44.948Z,8.70
2023-03-27T16:22:47.240Z,8.00
2023-03-27T16:27:58.789Z,6.63
2023-03-27T16:33:02.523Z,10.73
2023-03-27T16:38:04.850Z,7.10
2023-03-27T16:43:08.073Z,9.27
2023-03-27T16:48:11.246Z,4.00
2023-03-27T16:53:16.218Z,9.20
2023-03-27T16:58:18.638Z,9.32
2023-03-27T17:03:21.217Z,9.60
2023-03-27T17:08:24.534Z,15.10
2023-03-27T17:13:28.408Z,6.22
2023-03-27T17:18:32.336Z,10.20
2023-03-27T17:23:34.887Z,3.85
2023-03-27T17:28:37.203Z,6.53
2023-03-27T17:33:39.320Z,5.32
2023-03-27T17:38:44.592Z,5.53
2023-03-27T17:43:47.164Z,9.02
2023-03-27T17:48:49.720Z,4.20
2023-03-27T17:53:51.962Z,6.07
2023-03-27T17:58:56.644Z,7.63
2023-03-27T18:04:00.638Z,6.82
2023-03-27T18:09:03.313Z,6.10
2023-03-27T18:14:05.693Z,9.05
2023-03-27T18:19:09.333Z,4.97
2023-03-27T18:24:11.541Z,5.13
2023-03-27T18:29:14.411Z,6.30
2023-03-27T18:34:17.077Z,6.85
2023-03-27T18:39:20.034Z,6.63
2023-03-27T18:44:22.230Z,3.92
2023-03-27T18:49:26.975Z,6.20
2023-03-27T18:54:31.689Z,8.10
2023-03-27T18:59:35.238Z,7.78
2023-03-27T19:04:39.389Z,4.20
2023-03-27T19:09:42.068Z,9.23
2023-03-27T19:14:45.378Z,8.38
2023-03-27T19:20:16.962Z,10.48
2023-03-27T19:25:27.702Z,12.10
2023-03-27T19:30:30.632Z,12.50
2023-03-27T19:35:32.871Z,11.75
2023-03-27T19:40:35.120Z,13.10
2023-03-27T19:45:37.340Z,10.23
2023-03-27T19:50:39.588Z,12.88
2023-03-27T19:55:50.461Z,5.80
2023-03-27T20:00:54.723Z,6.85
2023-03-27T20:06:07.518Z,8.05
2023-03-27T20:11:10.868Z,8.95
2023-03-27T20:16:14.471Z,12.25
2023-03-27T20:21:17.398Z,9.20
2023-03-27T20:26:22.502Z,14.75
2023-03-27T20:31:31.844Z,15.18
2023-03-27T20:36:35.484Z,12.88
2023-03-27T20:41:51.395Z,11.15
2023-03-27T20:46:55.198Z,9.77
2023-03-27T20:51:59.844Z,6.57
2023-03-27T20:57:02.957Z,8.50
2023-03-27T21:02:06.136Z,9.77
2023-03-27T21:07:09.660Z,9.13
2023-03-27T21:12:11.980Z,17.30
2023-03-27T21:17:14.196Z,17.63
2023-03-27T21:22:16.528Z,15.77
2023-03-27T21:27:18.867Z,13.50
2023-03-27T21:32:21.011Z,13.30
2023-03-27T21:37:23.452Z,9.38
2023-03-27T21:42:25.692Z,9.57
2023-03-27T21:47:40.842Z,9.02
2023-03-27T21:52:49.117Z,6.55
2023-03-27T21:57:52.356Z,16.23
2023-03-27T22:02:54.703Z,10.23
2023-03-27T22:07:58.209Z,14.27
2023-03-27T22:13:01.585Z,8.35
2023-03-27T22:18:03.847Z,7.50
2023-03-27T22:23:06.405Z,10.68
2023-03-27T22:28:09.604Z,8.80
2023-03-27T22:33:11.788Z,7.18
2023-03-27T22:38:13.973Z,11.10
2023-03-27T22:43:22.968Z,5.97
2023-03-27T22:48:26.223Z,8.02
2023-03-27T22:53:32.044Z,16.77
2023-03-27T22:58:34.822Z,10.07
2023-03-27T23:03:40.357Z,9.38
2023-03-27T23:08:42.546Z,10.10
2023-03-27T23:13:48.350Z,10.65
2023-03-27T23:18:53.483Z,15.05
2023-03-27T23:24:08.070Z,10.18
2023-03-27T23:29:10.984Z,13.95
2023-03-27T23:34:13.293Z,14.40
2023-03-27T23:39:15.458Z,9.10
2023-03-27T23:44:18.892Z,7.50
2023-03-27T23:49:21.121Z,12.10
2023-03-27T23:54:24.897Z,10.48
2023-03-27T23:59:27.142Z,10.88
